createdAt,value
2023-08-14T00:04:51.965Z,57.40
2023-08-14T00:09:55.341Z,57.40
2023-08-14T00:15:00.036Z,57.40
2023-08-14T00:20:04.049Z,57.40
2023-08-14T00:25:07.506Z,57.40
2023-08-14T00:30:12.306Z,57.30
2023-08-14T00:35:15.634Z,57.20
2023-08-14T00:40:18.949Z,57.30
2023-08-14T00:45:30.082Z,56.80
2023-08-14T00:50:40.592Z,56.30
2023-08-14T00:55:44.137Z,56.10
2023-08-14T01:00:48.849Z,56.10
2023-08-14T01:05:52.270Z,56.10
2023-08-14T01:11:00.415Z,56.20
2023-08-14T01:16:06.686Z,56.20
2023-08-14T01:21:15.219Z,56.20
2023-08-14T01:26:19.850Z,56.20
2023-08-14T01:31:23.177Z,56.30
2023-08-14T01:36:28.821Z,56.20
2023-08-14T01:41:36.714Z,56.20
2023-08-14T01:46:43.871Z,56.20
2023-08-14T01:51:48.203Z,56.20
2023-08-14T01:56:52.871Z,56.40
2023-08-14T02:01:56.319Z,56.50
2023-08-14T02:06:59.609Z,56.70
2023-08-14T02:12:04.840Z,56.70
2023-08-14T02:17:08.176Z,56.70
2023-08-14T02:22:11.643Z,57.90
2023-08-14T02:27:16.295Z,57.90
2023-08-14T02:32:19.761Z,57.40
2023-08-14T02:37:23.633Z,57.20
2023-08-14T02:42:28.238Z,57.10
2023-08-14T02:47:31.570Z,57.20
2023-08-14T02:52:35.059Z,57.40
2023-08-14T02:57:39.699Z,57.40
2023-08-14T03:02:43.116Z,57.50
2023-08-14T03:07:46.501Z,57.30
2023-08-14T03:12:51.132Z,57.20
2023-08-14T03:17:54.635Z,57.20
2023-08-14T03:22:58.061Z,57.20
2023-08-14T03:28:02.752Z,57.10
2023-08-14T03:33:06.317Z,57.20
2023-08-14T03:38:09.670Z,57.50
2023-08-14T03:43:14.341Z,57.60
2023-08-14T03:48:17.653Z,57.90
2023-08-14T03:53:21.287Z,57.90
2023-08-14T03:58:25.933Z,57.60
2023-08-14T04:03:29.364Z,57.40
2023-08-14T04:08:32.765Z,57.40
2023-08-14T04:13:37.482Z,57.40
2023-08-14T04:18:41.088Z,57.40
2023-08-14T04:23:44.500Z,57.30
2023-08-14T04:28:49.123Z,57.30
2023-08-14T04:33:52.522Z,57.50
2023-08-14T04:38:55.806Z,57.50
2023-08-14T04:44:00.427Z,57.90
2023-08-14T04:49:04.199Z,58.20
2023-08-14T04:54:07.778Z,58.30
2023-08-14T04:59:12.476Z,58.00
2023-08-14T05:04:15.776Z,57.90
2023-08-14T05:09:26.539Z,58.00
2023-08-14T05:14:32.301Z,58.10
2023-08-14T05:19:35.635Z,58.10
2023-08-14T05:24:39.013Z,58.50
2023-08-14T05:29:43.765Z,58.50
2023-08-14T05:34:47.028Z,58.30
2023-08-14T05:39:50.350Z,58.20
2023-08-14T05:44:54.981Z,58.10
2023-08-14T05:49:58.257Z,58.00
2023-08-14T05:55:02.102Z,58.10
2023-08-14T06:00:07.618Z,58.20
2023-08-14T06:05:10.998Z,58.40
2023-08-14T06:10:14.300Z,58.70
2023-08-14T06:15:19.924Z,58.70
2023-08-14T06:20:23.450Z,58.90
2023-08-14T06:25:30.355Z,58.90
2023-08-14T06:30:35.927Z,59.30
2023-08-14T06:35:39.320Z,59.30
2023-08-14T06:40:42.647Z,59.30
2023-08-14T06:45:48.789Z,59.30
2023-08-14T06:50:53.583Z,59.60
2023-08-14T06:55:57.795Z,59.80
2023-08-14T07:01:02.675Z,60.10
2023-08-14T07:06:06.154Z,60.30
2023-08-14T07:11:09.531Z,60.20
2023-08-14T07:16:14.263Z,60.10
2023-08-14T07:21:18.062Z,60.10
2023-08-14T07:26:21.378Z,60.00
2023-08-14T07:31:28.119Z,60.00
2023-08-14T07:36:31.480Z,60.00
2023-08-14T07:41:37.328Z,60.10
2023-08-14T07:46:42.031Z,59.80
2023-08-14T07:51:45.632Z,59.70
2023-08-14T07:56:51.061Z,59.90
2023-08-14T08:01:56.147Z,59.70
2023-08-14T08:06:59.621Z,59.90
2023-08-14T08:12:03.488Z,59.70
2023-08-14T08:17:10.045Z,59.50
2023-08-14T08:22:13.309Z,59.20
2023-08-14T08:27:16.820Z,59.20
2023-08-14T08:32:21.468Z,59.10
2023-08-14T08:37:24.772Z,59.00
2023-08-14T08:42:28.470Z,59.10
2023-08-14T08:47:36.195Z,59.20
2023-08-14T08:52:40.671Z,59.20
2023-08-14T08:57:44.623Z,59.20
2023-08-14T09:02:51.885Z,59.30
2023-08-14T09:07:56.218Z,59.40
2023-08-14T09:13:00.797Z,59.40
2023-08-14T09:18:08.728Z,60.20
2023-08-14T09:23:12.344Z,60.20
2023-08-14T09:28:16.373Z,60.00
2023-08-14T09:33:28.908Z,60.00
2023-08-14T09:38:35.378Z,59.80
2023-08-14T09:43:41.303Z,59.70
2023-08-14T09:48:47.174Z,59.60
2023-08-14T09:53:56.565Z,59.40
2023-08-14T09:59:00.091Z,59.20
2023-08-14T10:04:05.069Z,59.10
2023-08-14T10:09:08.451Z,59.00
2023-08-14T10:14:13.311Z,58.60
2023-08-14T10:19:19.273Z,58.40
2023-08-14T10:24:23.398Z,58.30
2023-08-14T10:29:26.927Z,58.40
2023-08-14T10:34:31.863Z,58.30
2023-08-14T10:39:36.672Z,57.90
2023-08-14T10:44:39.996Z,58.00
2023-08-14T10:49:48.165Z,58.40
2023-08-14T10:54:52.189Z,58.70
2023-08-14T10:59:59.320Z,59.10
2023-08-14T11:05:14.106Z,59.40
2023-08-14T11:10:18.773Z,58.90
2023-08-14T11:15:22.961Z,58.00
2023-08-14T11:20:31.150Z,57.30
2023-08-14T11:25:35.974Z,56.50
2023-08-14T11:30:42.256Z,55.20
2023-08-14T11:36:03.409Z,54.80
2023-08-14T11:41:23.755Z,54.10
2023-08-14T11:46:34.887Z,53.70
2023-08-14T11:51:42.204Z,53.10
2023-08-14T11:56:48.787Z,52.50
2023-08-14T12:01:54.378Z,52.00
2023-08-14T12:06:59.024Z,51.80
2023-08-14T12:12:02.433Z,51.60
2023-08-14T12:17:13.050Z,51.20
2023-08-14T12:22:22.953Z,50.50
2023-08-14T12:27:32.539Z,50.50
2023-08-14T12:32:37.579Z,50.00
2023-08-14T12:37:42.416Z,49.40
2023-08-14T12:42:45.881Z,48.60
2023-08-14T12:47:49.599Z,48.00
2023-08-14T12:52:54.316Z,47.60
2023-08-14T12:57:59.417Z,47.70
2023-08-14T13:08:15.800Z,47.50
2023-08-14T13:13:19.384Z,47.20
2023-08-14T13:18:23.670Z,47.40
2023-08-14T13:23:28.641Z,45.10
2023-08-14T13:28:33.394Z,44.90
2023-08-14T13:33:36.776Z,44.30
2023-08-14T13:38:41.407Z,42.80
2023-08-14T13:43:44.973Z,42.30
2023-08-14T13:48:48.368Z,42.80
2023-08-14T13:53:53.046Z,42.30
2023-08-14T13:58:59.090Z,42.10
2023-08-14T14:04:02.579Z,41.60
2023-08-14T14:09:07.310Z,41.60
2023-08-14T14:14:10.572Z,40.70
2023-08-14T14:19:13.878Z,39.70
2023-08-14T14:24:18.503Z,39.50
2023-08-14T14:29:21.833Z,39.30
2023-08-14T14:34:27.547Z,38.50
2023-08-14T14:39:33.779Z,38.30
2023-08-14T14:44:37.239Z,38.30
2023-08-14T14:49:41.096Z,38.20
2023-08-14T14:54:46.183Z,38.00
2023-08-14T14:59:49.503Z,37.60
2023-08-14T15:04:52.937Z,37.40
2023-08-14T15:09:57.664Z,37.20
2023-08-14T15:15:01.055Z,36.60
2023-08-14T15:20:04.640Z,36.60
2023-08-14T15:25:12.735Z,36.20
2023-08-14T15:30:17.533Z,35.80
2023-08-14T15:35:21.008Z,35.20
2023-08-14T15:40:25.738Z,34.90
2023-08-14T15:45:29.444Z,34.50
2023-08-14T15:50:33.351Z,34.40
2023-08-14T15:55:39.877Z,34.10
2023-08-14T16:00:43.586Z,33.60
2023-08-14T16:05:47.024Z,33.10
2023-08-14T16:10:54.648Z,32.20
2023-08-14T16:16:02.147Z,30.80
2023-08-14T16:21:10.794Z,30.10
2023-08-14T16:26:22.180Z,30.10
2023-08-14T16:31:25.935Z,30.20
2023-08-14T16:36:29.624Z,30.30
2023-08-14T16:41:34.985Z,30.70
2023-08-14T16:46:38.869Z,31.00
2023-08-14T16:51:45.282Z,31.40
2023-08-14T16:56:50.103Z,31.80
2023-08-14T17:01:53.779Z,32.20
2023-08-14T17:06:57.116Z,33.10
2023-08-14T17:12:01.812Z,31.90
2023-08-14T17:17:05.230Z,31.90
2023-08-14T17:22:08.576Z,31.90
2023-08-14T17:27:13.909Z,32.00
2023-08-14T17:32:17.531Z,32.00
2023-08-14T17:37:22.153Z,32.10
2023-08-14T17:42:27.154Z,32.10
2023-08-14T17:47:32.295Z,32.40
2023-08-14T17:52:35.829Z,32.60
2023-08-14T17:57:40.663Z,32.80
2023-08-14T18:02:44.417Z,33.10
2023-08-14T18:07:47.803Z,33.30
2023-08-14T18:12:52.498Z,33.50
2023-08-14T18:17:55.860Z,33.80
2023-08-14T18:22:59.188Z,33.90
2023-08-14T18:28:05.600Z,34.10
2023-08-14T18:33:09.041Z,34.30
2023-08-14T18:38:12.458Z,34.40
2023-08-14T18:43:17.254Z,34.60
2023-08-14T18:48:20.561Z,34.80
2023-08-14T18:53:23.820Z,34.90
2023-08-14T18:58:28.547Z,35.10
2023-08-14T19:03:32.413Z,35.20
2023-08-14T19:08:35.885Z,35.40
2023-08-14T19:13:40.578Z,35.50
2023-08-14T19:18:44.031Z,35.60
2023-08-14T19:23:47.492Z,35.90
2023-08-14T19:28:52.344Z,35.90
2023-08-14T19:33:59.759Z,36.10
2023-08-14T19:39:03.988Z,36.30
2023-08-14T19:44:10.130Z,36.60
2023-08-14T19:49:13.548Z,36.60
2023-08-14T19:54:16.909Z,36.70
2023-08-14T19:59:21.509Z,36.80
2023-08-14T20:04:24.925Z,37.00
2023-08-14T20:09:28.307Z,37.00
2023-08-14T20:14:32.959Z,37.10
2023-08-14T20:19:36.276Z,37.30
2023-08-14T20:24:39.619Z,37.50
2023-08-14T20:29:44.312Z,38.50
2023-08-14T20:34:50.055Z,37.60
2023-08-14T20:39:53.823Z,37.80
2023-08-14T20:44:59.671Z,38.00
2023-08-14T20:50:03.610Z,38.10
2023-08-14T20:55:07.448Z,38.80
2023-08-14T21:00:12.968Z,39.20
2023-08-14T21:05:16.577Z,39.40
2023-08-14T21:10:19.930Z,39.50
2023-08-14T21:15:26.037Z,39.70
2023-08-14T21:20:29.487Z,39.90
2023-08-14T21:25:44.372Z,40.20
2023-08-14T21:30:59.961Z,40.60
2023-08-14T21:36:05.431Z,41.00
2023-08-14T21:41:11.005Z,41.10
2023-08-14T21:46:16.341Z,41.00
2023-08-14T21:51:19.762Z,41.10
2023-08-14T21:56:23.128Z,40.90
2023-08-14T22:01:27.799Z,40.60
2023-08-14T22:06:31.346Z,40.20
2023-08-14T22:11:34.678Z,40.10
2023-08-14T22:16:39.474Z,40.70
2023-08-14T22:21:42.918Z,41.10
2023-08-14T22:26:46.225Z,41.30
2023-08-14T22:31:50.974Z,41.30
2023-08-14T22:36:54.357Z,41.40
2023-08-14T22:41:57.692Z,41.50
2023-08-14T22:47:02.397Z,41.80
2023-08-14T22:52:05.963Z,41.80
2023-08-14T22:57:09.278Z,41.80
2023-08-14T23:02:13.959Z,41.70
2023-08-14T23:07:17.678Z,41.70
2023-08-14T23:12:21.208Z,41.60
2023-08-14T23:17:26.005Z,41.60
2023-08-14T23:22:29.342Z,41.70
2023-08-14T23:27:32.670Z,41.90
2023-08-14T23:32:37.435Z,42.20
2023-08-14T23:37:40.763Z,42.50
2023-08-14T23:42:44.103Z,42.50
2023-08-14T23:47:48.813Z,42.40
2023-08-14T23:52:52.104Z,42.60
2023-08-14T23:57:55.437Z,43.10
